Time;durP1;ratioP1;P1;durP2;ratioP2;P2;SDS_P1;SDS_P2;PMS_P1;PMS_P2;Temp;Humidity;BMP_temperature;BMP_pressure;BME280_temperature;BME280_humidity;BME280_pressure;Samples;Min_cycle;Max_cycle;Signal;HPM_P1;HPM_P2
2023/10/06 00:00:26;;;;;;;;;18.50;16.00;;;;;;;;5099226;28;8933;-80
2023/10/06 00:02:51;;;;;;;;;22.50;14.00;;;;;;;;5063817;28;8797;-80
2023/10/06 00:05:17;;;;;;;;;19.25;16.00;;;;;;;;5063564;28;11423;-80
2023/10/06 00:07:42;;;;;;;;;20.25;13.00;;;;;;;;5062296;28;9140;-80
2023/10/06 00:10:17;;;;;;;;;17.75;15.00;;;;;;;;5079331;28;8789;-80
2023/10/06 00:12:47;;;;;;;;;19.50;14.25;;;;;;;;5063194;28;8929;-80
2023/10/06 00:15:26;;;;;;;;;24.75;14.00;;;;;;;;5063241;28;11051;-80
2023/10/06 00:17:55;;;;;;;;;17.00;15.00;;;;;;;;5063827;28;11106;-80
2023/10/06 00:20:26;;;;;;;;;17.75;14.75;;;;;;;;5063488;28;11089;-80
2023/10/06 00:22:55;;;;;;;;;22.25;15.00;;;;;;;;5062586;28;11360;-80
2023/10/06 00:25:20;;;;;;;;;15.50;15.00;;;;;;;;5078724;28;11403;-80
2023/10/06 00:27:46;;;;;;;;;16.50;12.75;;;;;;;;5063376;28;10983;-80
2023/10/06 00:30:12;;;;;;;;;15.00;14.50;;;;;;;;5078977;28;8801;-80
2023/10/06 00:32:37;;;;;;;;;22.75;14.25;;;;;;;;5061582;28;9891;-80
2023/10/06 00:35:08;;;;;;;;;16.00;15.50;;;;;;;;5063388;28;8788;-80
2023/10/06 00:37:38;;;;;;;;;25.00;16.75;;;;;;;;5078932;28;9391;-80
2023/10/06 00:40:10;;;;;;;;;19.25;14.25;;;;;;;;5081769;28;11239;-80
2023/10/06 00:42:36;;;;;;;;;17.50;15.25;;;;;;;;5063941;28;10889;-79
2023/10/06 00:45:05;;;;;;;;;14.75;11.75;;;;;;;;5083180;28;11212;-80
2023/10/06 00:47:38;;;;;;;;;21.00;13.00;;;;;;;;5082674;28;8815;-80
2023/10/06 00:50:05;;;;;;;;;18.00;14.00;;;;;;;;5083387;28;11353;-80
2023/10/06 00:52:33;;;;;;;;;20.00;16.75;;;;;;;;5082153;28;11407;-80
2023/10/06 00:55:02;;;;;;;;;15.50;14.00;;;;;;;;5083185;28;11073;-79
2023/10/06 00:57:28;;;;;;;;;20.50;14.25;;;;;;;;5082934;28;11166;-80
2023/10/06 00:59:55;;;;;;;;;18.50;16.00;;;;;;;;5064880;28;11523;-80
2023/10/06 01:02:20;;;;;;;;;17.75;14.75;;;;;;;;5082930;28;8866;-80
2023/10/06 01:04:46;;;;;;;;;22.00;14.75;;;;;;;;5082802;28;11016;-80
2023/10/06 01:07:16;;;;;;;;;15.75;15.00;;;;;;;;5062440;28;8911;-80
2023/10/06 01:10:04;;;;;;;;;15.50;13.50;;;;;;;;5062854;28;8748;-80
2023/10/06 01:12:32;;;;;;;;;17.25;15.75;;;;;;;;5060409;28;11404;-79
2023/10/06 01:15:15;;;;;;;;;16.75;14.00;;;;;;;;5062238;28;11344;-80
2023/10/06 01:17:40;;;;;;;;;22.75;18.00;;;;;;;;5103031;28;11171;-80
2023/10/06 01:20:09;;;;;;;;;18.25;14.75;;;;;;;;5100445;28;12150;-80
2023/10/06 01:22:41;;;;;;;;;22.25;16.50;;;;;;;;5084146;28;10308;-80
2023/10/06 01:25:12;;;;;;;;;14.75;12.50;;;;;;;;5102580;28;11090;-79
2023/10/06 01:27:38;;;;;;;;;13.50;11.50;;;;;;;;5102770;28;11159;-80
2023/10/06 01:32:59;;;;;;;;;22.00;15.75;;;;;;;;5087607;28;8780;-80
2023/10/06 01:35:26;;;;;;;;;15.00;11.75;;;;;;;;5081741;28;11266;-80
2023/10/06 01:37:57;;;;;;;;;13.25;12.25;;;;;;;;5079286;28;11081;-79
2023/10/06 01:42:48;;;;;;;;;15.75;10.00;;;;;;;;5059488;28;11371;-80
2023/10/06 01:45:14;;;;;;;;;18.00;13.50;;;;;;;;5060813;28;8879;-80
2023/10/06 01:47:39;;;;;;;;;20.50;15.50;;;;;;;;5077002;28;8876;-80
2023/10/06 01:50:05;;;;;;;;;17.75;14.50;;;;;;;;5061357;28;11519;-80
2023/10/06 01:52:30;;;;;;;;;11.00;9.50;;;;;;;;5060173;28;10100;-80
2023/10/06 01:55:09;;;;;;;;;12.75;10.00;;;;;;;;5062022;28;8777;-80
2023/10/06 01:57:34;;;;;;;;;14.75;12.00;;;;;;;;5062318;28;8718;-80
2023/10/06 01:59:59;;;;;;;;;11.50;9.00;;;;;;;;5062007;28;11050;-79
2023/10/06 02:02:24;;;;;;;;;15.75;12.50;;;;;;;;5062226;28;8895;-80
2023/10/06 02:04:52;;;;;;;;;12.75;9.00;;;;;;;;5067797;28;8786;-80
2023/10/06 02:07:18;;;;;;;;;14.00;11.00;;;;;;;;5082027;28;8871;-79
2023/10/06 02:09:43;;;;;;;;;12.75;10.25;;;;;;;;5082149;28;11021;-80
2023/10/06 02:12:09;;;;;;;;;9.25;8.00;;;;;;;;5082093;28;11354;-80
2023/10/06 02:14:34;;;;;;;;;15.00;11.50;;;;;;;;5081141;28;8817;-78
2023/10/06 02:17:05;;;;;;;;;10.75;10.00;;;;;;;;5081954;28;8914;-80
2023/10/06 02:19:32;;;;;;;;;13.50;10.00;;;;;;;;5080422;28;8798;-80
2023/10/06 02:21:57;;;;;;;;;17.00;10.75;;;;;;;;5081538;28;11354;-80
2023/10/06 02:24:23;;;;;;;;;12.75;10.25;;;;;;;;5081652;28;10900;-80
2023/10/06 02:26:57;;;;;;;;;19.00;12.25;;;;;;;;5081454;28;8878;-80
2023/10/06 02:29:23;;;;;;;;;11.25;11.25;;;;;;;;5082177;28;8759;-80
2023/10/06 02:31:48;;;;;;;;;14.00;11.25;;;;;;;;5076487;28;11448;-80
2023/10/06 02:34:18;;;;;;;;;16.00;11.75;;;;;;;;5064722;28;8793;-80
2023/10/06 02:36:43;;;;;;;;;16.00;9.75;;;;;;;;5063800;28;8781;-80
2023/10/06 02:39:08;;;;;;;;;9.00;9.00;;;;;;;;5079023;28;11652;-80
2023/10/06 02:41:34;;;;;;;;;11.50;10.25;;;;;;;;5067060;28;10234;-80
2023/10/06 02:44:14;;;;;;;;;9.75;8.00;;;;;;;;5084405;28;8963;-80
2023/10/06 02:46:41;;;;;;;;;11.50;10.00;;;;;;;;5084699;28;10960;-80
2023/10/06 02:49:09;;;;;;;;;9.25;9.00;;;;;;;;5067018;28;11177;-80
2023/10/06 02:51:47;;;;;;;;;3.75;3.00;;;;;;;;5067040;28;11291;-80
2023/10/06 02:56:41;;;;;;;;;13.75;10.25;;;;;;;;5084976;28;11328;-80
2023/10/06 02:59:20;;;;;;;;;12.00;9.00;;;;;;;;5084552;28;11153;-80
2023/10/06 03:01:51;;;;;;;;;7.50;7.50;;;;;;;;5084234;28;11260;-80
2023/10/06 03:04:17;;;;;;;;;9.75;7.75;;;;;;;;5083005;28;12370;-80
2023/10/06 03:06:53;;;;;;;;;13.00;9.25;;;;;;;;5064837;28;11120;-80
2023/10/06 03:09:27;;;;;;;;;14.50;10.50;;;;;;;;5081344;28;8866;-80
2023/10/06 03:11:53;;;;;;;;;10.25;9.75;;;;;;;;5084584;28;11398;-80
2023/10/06 03:14:24;;;;;;;;;13.50;6.00;;;;;;;;5051997;28;11366;-80
2023/10/06 03:16:52;;;;;;;;;16.00;9.25;;;;;;;;5084031;28;9736;-80
2023/10/06 03:19:24;;;;;;;;;17.25;14.25;;;;;;;;5104257;28;11119;-80
2023/10/06 03:21:49;;;;;;;;;24.50;17.50;;;;;;;;5104965;28;11281;-79
2023/10/06 03:24:25;;;;;;;;;22.75;21.00;;;;;;;;5085957;28;11508;-80
2023/10/06 03:26:51;;;;;;;;;19.50;15.75;;;;;;;;5103795;28;8869;-79
2023/10/06 03:29:28;;;;;;;;;15.00;12.00;;;;;;;;5101776;28;11422;-79
2023/10/06 03:31:56;;;;;;;;;12.25;10.50;;;;;;;;5065282;28;11307;-79
2023/10/06 03:34:23;;;;;;;;;14.00;12.50;;;;;;;;5064298;28;11100;-79
2023/10/06 03:36:57;;;;;;;;;17.75;15.25;;;;;;;;5080850;28;11479;-78
2023/10/06 03:39:28;;;;;;;;;20.25;15.50;;;;;;;;5080147;28;11440;-79
2023/10/06 03:41:56;;;;;;;;;28.75;22.25;;;;;;;;5082117;28;11402;-79
2023/10/06 03:44:29;;;;;;;;;18.00;18.00;;;;;;;;5083432;28;11379;-79
2023/10/06 03:47:01;;;;;;;;;21.25;19.00;;;;;;;;5083674;28;11371;-80
2023/10/06 03:49:27;;;;;;;;;19.75;17.75;;;;;;;;5084011;28;11345;-79
2023/10/06 03:51:55;;;;;;;;;21.75;14.75;;;;;;;;5078757;28;11497;-79
2023/10/06 03:54:21;;;;;;;;;13.50;11.50;;;;;;;;5079190;28;8819;-79
2023/10/06 03:56:49;;;;;;;;;15.50;14.00;;;;;;;;5077702;28;11387;-79
2023/10/06 03:59:15;;;;;;;;;13.00;12.00;;;;;;;;5083341;28;8743;-80
2023/10/06 04:01:44;;;;;;;;;18.50;12.50;;;;;;;;5083718;28;11329;-79
2023/10/06 04:04:09;;;;;;;;;11.75;11.00;;;;;;;;5083468;28;8775;-79
2023/10/06 04:06:35;;;;;;;;;13.00;10.25;;;;;;;;5083902;28;11394;-79
2023/10/06 04:09:00;;;;;;;;;13.50;11.75;;;;;;;;5083556;28;8766;-79
2023/10/06 04:11:32;;;;;;;;;11.75;10.00;;;;;;;;5083673;28;8784;-79
2023/10/06 04:13:58;;;;;;;;;14.75;11.50;;;;;;;;5081938;28;8711;-79
2023/10/06 04:16:24;;;;;;;;;10.25;8.00;;;;;;;;5082171;28;11390;-79
2023/10/06 04:18:49;;;;;;;;;17.25;11.00;;;;;;;;5083885;28;8775;-79
2023/10/06 04:21:14;;;;;;;;;13.75;11.00;;;;;;;;5099593;28;8780;-79
2023/10/06 04:23:43;;;;;;;;;16.25;12.75;;;;;;;;5083370;28;8817;-79
2023/10/06 04:26:09;;;;;;;;;15.75;11.00;;;;;;;;5082021;28;8731;-79
2023/10/06 04:28:35;;;;;;;;;11.50;10.50;;;;;;;;5071238;28;11336;-79
2023/10/06 04:31:05;;;;;;;;;11.50;7.75;;;;;;;;5063297;28;11359;-79
2023/10/06 04:33:30;;;;;;;;;18.75;10.50;;;;;;;;5063602;28;8781;-79
2023/10/06 04:35:55;;;;;;;;;18.75;14.25;;;;;;;;5078468;28;11429;-79
2023/10/06 04:38:21;;;;;;;;;17.50;12.00;;;;;;;;5070367;28;8814;-79
2023/10/06 04:40:47;;;;;;;;;15.25;12.75;;;;;;;;5083413;28;8774;-79
2023/10/06 04:43:18;;;;;;;;;14.00;10.00;;;;;;;;5081732;28;11358;-79
2023/10/06 04:45:47;;;;;;;;;13.00;11.25;;;;;;;;5083401;28;8735;-79
2023/10/06 04:48:13;;;;;;;;;13.75;11.50;;;;;;;;5082855;28;11415;-79
2023/10/06 04:50:42;;;;;;;;;13.00;13.00;;;;;;;;5064606;28;11378;-79
2023/10/06 04:53:07;;;;;;;;;12.00;8.00;;;;;;;;5081392;28;11296;-79
2023/10/06 04:55:37;;;;;;;;;12.75;9.25;;;;;;;;5086363;28;11403;-79
2023/10/06 04:58:03;;;;;;;;;12.25;9.00;;;;;;;;5082620;28;8797;-79
2023/10/06 05:00:28;;;;;;;;;15.50;9.00;;;;;;;;5064009;28;11292;-79
2023/10/06 05:02:54;;;;;;;;;16.50;10.25;;;;;;;;5100616;28;11490;-79
2023/10/06 05:05:20;;;;;;;;;12.75;11.25;;;;;;;;5081302;28;8793;-79
2023/10/06 05:07:53;;;;;;;;;13.00;13.00;;;;;;;;5077995;28;8765;-76
2023/10/06 05:10:21;;;;;;;;;10.75;10.75;;;;;;;;5078813;28;11360;-76
2023/10/06 05:12:50;;;;;;;;;13.50;13.50;;;;;;;;5062407;28;11415;-76
2023/10/06 05:15:50;;;;;;;;;19.50;12.75;;;;;;;;5063244;28;11394;-81
2023/10/06 05:18:13;;;;;;;;;12.25;12.25;;;;;;;;5074114;28;11342;-77
2023/10/06 05:20:38;;;;;;;;;14.75;12.00;;;;;;;;5063625;28;11397;-76
2023/10/06 05:23:09;;;;;;;;;17.00;13.25;;;;;;;;5067487;28;11403;-76
2023/10/06 05:25:35;;;;;;;;;14.75;10.25;;;;;;;;5076885;28;8823;-74
2023/10/06 05:28:00;;;;;;;;;12.50;11.00;;;;;;;;5061544;28;11356;-76
2023/10/06 05:30:26;;;;;;;;;14.00;11.50;;;;;;;;5093769;28;10575;-78
2023/10/06 05:32:52;;;;;;;;;13.00;9.00;;;;;;;;5088508;28;8800;-75
2023/10/06 05:35:19;;;;;;;;;18.25;12.00;;;;;;;;5083947;28;8814;-79
2023/10/06 05:37:44;;;;;;;;;14.50;7.50;;;;;;;;5075008;28;8774;-79
2023/10/06 05:40:16;;;;;;;;;12.50;11.50;;;;;;;;5095864;28;11387;-77
2023/10/06 05:42:42;;;;;;;;;18.50;11.75;;;;;;;;5059791;28;8733;-76
2023/10/06 05:45:15;;;;;;;;;13.00;12.00;;;;;;;;5074180;28;11316;-74
2023/10/06 05:47:41;;;;;;;;;20.50;14.00;;;;;;;;5090888;28;11367;-79
2023/10/06 05:50:08;;;;;;;;;18.00;14.25;;;;;;;;5081685;28;11384;-78
2023/10/06 05:52:38;;;;;;;;;16.00;15.00;;;;;;;;5079510;28;8798;-78
2023/10/06 05:55:08;;;;;;;;;18.25;16.25;;;;;;;;5082039;28;11383;-77
2023/10/06 05:57:34;;;;;;;;;18.00;14.75;;;;;;;;5083063;28;12247;-78
2023/10/06 06:00:01;;;;;;;;;26.25;18.25;;;;;;;;5096733;28;11395;-77
2023/10/06 06:02:29;;;;;;;;;19.25;12.25;;;;;;;;5081211;28;11386;-77
2023/10/06 06:04:57;;;;;;;;;22.25;17.50;;;;;;;;5082117;28;11320;-77
2023/10/06 06:07:23;;;;;;;;;19.25;16.50;;;;;;;;5084976;28;11371;-77
2023/10/06 06:09:49;;;;;;;;;18.25;12.00;;;;;;;;5096156;28;11348;-77
2023/10/06 06:12:19;;;;;;;;;17.50;17.50;;;;;;;;5105893;28;8819;-77
2023/10/06 06:14:44;;;;;;;;;25.00;12.75;;;;;;;;5105302;28;11382;-77
2023/10/06 06:17:09;;;;;;;;;19.50;17.50;;;;;;;;5082652;28;11419;-77
2023/10/06 06:19:34;;;;;;;;;18.00;14.00;;;;;;;;5065870;28;10066;-77
2023/10/06 06:22:05;;;;;;;;;16.00;14.25;;;;;;;;5089222;28;8790;-77
2023/10/06 06:24:31;;;;;;;;;20.00;17.50;;;;;;;;5104287;28;8796;-77
2023/10/06 06:26:56;;;;;;;;;16.00;13.50;;;;;;;;5103377;28;11441;-79
2023/10/06 06:29:24;;;;;;;;;22.25;15.75;;;;;;;;5091778;28;8934;-79
2023/10/06 06:31:49;;;;;;;;;21.50;13.75;;;;;;;;5084173;28;8779;-78
2023/10/06 06:34:16;;;;;;;;;15.25;15.25;;;;;;;;5092765;28;11602;-79
2023/10/06 06:36:41;;;;;;;;;13.25;13.25;;;;;;;;5084903;28;8775;-77
2023/10/06 06:39:10;;;;;;;;;18.75;15.50;;;;;;;;5069527;28;12155;-77
2023/10/06 06:41:35;;;;;;;;;20.25;16.75;;;;;;;;5086736;28;8804;-77
2023/10/06 06:44:01;;;;;;;;;16.25;13.75;;;;;;;;5095169;28;11439;-78
2023/10/06 06:46:26;;;;;;;;;19.75;14.25;;;;;;;;5094640;28;8818;-78
2023/10/06 06:48:52;;;;;;;;;16.50;12.50;;;;;;;;5069212;28;8814;-77
2023/10/06 06:51:18;;;;;;;;;19.00;17.25;;;;;;;;5072551;28;8799;-78
2023/10/06 06:53:43;;;;;;;;;15.50;14.75;;;;;;;;5070632;28;9187;-77
2023/10/06 06:56:10;;;;;;;;;26.00;19.25;;;;;;;;5094549;28;11296;-77
2023/10/06 06:58:37;;;;;;;;;15.25;12.25;;;;;;;;5079966;28;8755;-77
2023/10/06 07:01:05;;;;;;;;;20.25;17.75;;;;;;;;5082811;28;11384;-77
2023/10/06 07:03:30;;;;;;;;;22.00;15.00;;;;;;;;5083760;28;11395;-77
2023/10/06 07:05:56;;;;;;;;;15.00;13.75;;;;;;;;5083775;28;11457;-77
2023/10/06 07:08:21;;;;;;;;;11.25;11.25;;;;;;;;5085605;28;8868;-77
2023/10/06 07:10:52;;;;;;;;;19.25;14.25;;;;;;;;5084041;28;8795;-77
2023/10/06 07:13:17;;;;;;;;;20.75;20.50;;;;;;;;5061549;28;8753;-79
2023/10/06 07:15:42;;;;;;;;;22.25;15.75;;;;;;;;5064028;28;11575;-78
2023/10/06 07:18:10;;;;;;;;;20.75;16.25;;;;;;;;5063727;28;8768;-78
2023/10/06 07:20:35;;;;;;;;;23.00;18.75;;;;;;;;5084103;28;8801;-78
2023/10/06 07:23:00;;;;;;;;;16.25;14.25;;;;;;;;5081901;28;12130;-78
2023/10/06 07:25:26;;;;;;;;;18.50;14.00;;;;;;;;5084239;28;8790;-78
2023/10/06 07:27:53;;;;;;;;;23.00;18.75;;;;;;;;5084479;28;8808;-78
2023/10/06 07:30:22;;;;;;;;;17.25;15.00;;;;;;;;5078758;28;11392;-78
2023/10/06 07:32:47;;;;;;;;;27.50;14.75;;;;;;;;5074119;28;11167;-78
2023/10/06 07:35:14;;;;;;;;;26.75;19.50;;;;;;;;5082457;28;11413;-77
2023/10/06 07:37:45;;;;;;;;;19.75;17.50;;;;;;;;5063794;28;10147;-77
2023/10/06 07:40:14;;;;;;;;;16.00;13.00;;;;;;;;5086812;28;11325;-77
2023/10/06 07:42:43;;;;;;;;;22.00;16.25;;;;;;;;5082632;28;11008;-77
2023/10/06 07:45:09;;;;;;;;;25.00;21.50;;;;;;;;5089214;28;11332;-77
2023/10/06 07:47:36;;;;;;;;;30.00;26.25;;;;;;;;5080565;28;11415;-77
2023/10/06 07:50:02;;;;;;;;;20.25;20.25;;;;;;;;5088316;28;8735;-77
2023/10/06 07:52:27;;;;;;;;;16.25;15.50;;;;;;;;5070986;28;11421;-79
2023/10/06 07:54:52;;;;;;;;;22.75;19.25;;;;;;;;5070454;28;11443;-76
2023/10/06 07:57:18;;;;;;;;;30.50;24.50;;;;;;;;5083035;28;8852;-76
2023/10/06 07:59:43;;;;;;;;;26.50;23.25;;;;;;;;5087647;28;9576;-78
2023/10/06 08:02:08;;;;;;;;;29.50;24.25;;;;;;;;5089520;28;8807;-79
2023/10/06 08:04:34;;;;;;;;;30.25;24.00;;;;;;;;5092518;28;8780;-77
2023/10/06 08:07:00;;;;;;;;;27.00;21.00;;;;;;;;5074573;28;8847;-76
2023/10/06 08:09:26;;;;;;;;;27.75;24.00;;;;;;;;5076630;28;9715;-76
2023/10/06 08:11:54;;;;;;;;;24.25;19.75;;;;;;;;5068312;28;11486;-79
2023/10/06 08:14:20;;;;;;;;;20.75;17.50;;;;;;;;5088096;28;8840;-79
2023/10/06 08:16:45;;;;;;;;;24.25;22.25;;;;;;;;5073314;28;12348;-78
2023/10/06 08:19:11;;;;;;;;;23.50;20.50;;;;;;;;5094041;28;11416;-76
2023/10/06 08:21:37;;;;;;;;;19.50;18.50;;;;;;;;5088225;28;8785;-76
2023/10/06 08:24:02;;;;;;;;;21.50;20.25;;;;;;;;5102975;28;8776;-76
2023/10/06 08:26:27;;;;;;;;;23.75;19.75;;;;;;;;5101409;28;11432;-76
2023/10/06 08:28:54;;;;;;;;;26.50;21.50;;;;;;;;5083007;28;8840;-75
2023/10/06 08:31:19;;;;;;;;;26.25;22.50;;;;;;;;5084927;28;8767;-77
2023/10/06 08:33:45;;;;;;;;;25.50;19.25;;;;;;;;5086143;28;11421;-76
2023/10/06 08:36:11;;;;;;;;;26.75;22.00;;;;;;;;5062493;28;8813;-76
2023/10/06 08:38:36;;;;;;;;;20.25;17.00;;;;;;;;5078514;28;11451;-76
2023/10/06 08:41:02;;;;;;;;;26.25;21.25;;;;;;;;5082408;28;8863;-79
2023/10/06 08:43:27;;;;;;;;;24.75;18.00;;;;;;;;5079644;28;8897;-76
2023/10/06 08:45:55;;;;;;;;;24.00;19.00;;;;;;;;5067075;28;8783;-76
2023/10/06 08:48:24;;;;;;;;;17.75;17.75;;;;;;;;5066312;28;8731;-76
2023/10/06 08:50:53;;;;;;;;;24.75;22.00;;;;;;;;5076308;28;11336;-76
2023/10/06 08:53:20;;;;;;;;;17.75;16.50;;;;;;;;5078043;28;11388;-76
2023/10/06 08:55:45;;;;;;;;;19.50;16.75;;;;;;;;5065115;28;11544;-76
2023/10/06 08:58:14;;;;;;;;;18.25;15.00;;;;;;;;5099058;28;11177;-76
2023/10/06 09:00:43;;;;;;;;;17.00;12.75;;;;;;;;5081134;28;8907;-76
2023/10/06 09:03:08;;;;;;;;;15.00;14.00;;;;;;;;5083181;28;11036;-76
2023/10/06 09:05:35;;;;;;;;;20.00;17.25;;;;;;;;5071802;28;11049;-76
2023/10/06 09:08:05;;;;;;;;;16.25;12.25;;;;;;;;5094786;28;8786;-76
2023/10/06 09:10:51;;;;;;;;;23.25;14.00;;;;;;;;5077590;28;10759;-77
2023/10/06 09:13:32;;;;;;;;;17.00;13.50;;;;;;;;5080938;28;10972;-77
2023/10/06 09:16:10;;;;;;;;;16.75;12.00;;;;;;;;5086459;28;11072;-76
2023/10/06 09:22:11;;;;;;;;;12.00;9.75;;;;;;;;5004827;28;11801;-76
2023/10/06 09:24:39;;;;;;;;;10.25;8.50;;;;;;;;5024755;28;10682;-77
2023/10/06 09:27:41;;;;;;;;;13.25;9.75;;;;;;;;5036375;28;10908;-76
2023/10/06 09:30:16;;;;;;;;;14.50;9.25;;;;;;;;4980857;28;10765;-77
2023/10/06 09:33:11;;;;;;;;;10.50;8.75;;;;;;;;4965362;28;10747;-76
2023/10/06 09:35:39;;;;;;;;;13.00;11.25;;;;;;;;4967894;28;10339;-76
2023/10/06 09:38:10;;;;;;;;;9.25;8.50;;;;;;;;4970476;28;10757;-76
2023/10/06 09:40:42;;;;;;;;;13.50;10.00;;;;;;;;4973307;28;10590;-79
2023/10/06 09:43:11;;;;;;;;;12.50;8.75;;;;;;;;4960625;28;10610;-78
2023/10/06 09:45:37;;;;;;;;;12.00;11.50;;;;;;;;4964585;28;10721;-77
2023/10/06 09:48:05;;;;;;;;;11.00;9.00;;;;;;;;4960433;28;11937;-77
2023/10/06 09:50:31;;;;;;;;;12.00;10.00;;;;;;;;4960837;28;8748;-79
2023/10/06 09:52:58;;;;;;;;;10.75;9.50;;;;;;;;4963418;28;10656;-76
2023/10/06 09:55:25;;;;;;;;;11.00;7.75;;;;;;;;4988431;28;10326;-76
2023/10/06 09:57:54;;;;;;;;;15.50;11.00;;;;;;;;5038710;28;10615;-77
2023/10/06 10:00:19;;;;;;;;;9.75;9.00;;;;;;;;5006137;28;10547;-77
2023/10/06 10:02:46;;;;;;;;;18.00;9.50;;;;;;;;5031596;28;10502;-75
2023/10/06 10:05:12;;;;;;;;;18.50;13.00;;;;;;;;5082082;28;8909;-79
2023/10/06 10:07:40;;;;;;;;;14.75;11.00;;;;;;;;5063139;28;11807;-80
2023/10/06 10:10:05;;;;;;;;;13.75;9.75;;;;;;;;5085382;28;8875;-79
2023/10/06 10:12:39;;;;;;;;;8.00;8.00;;;;;;;;5087511;28;10644;-81
2023/10/06 10:15:21;;;;;;;;;11.00;10.00;;;;;;;;5060436;28;8790;-80
2023/10/06 10:17:55;;;;;;;;;12.00;8.75;;;;;;;;5078954;28;10662;-79
2023/10/06 10:20:25;;;;;;;;;13.00;9.25;;;;;;;;5065394;28;10463;-78
2023/10/06 10:22:52;;;;;;;;;13.25;11.00;;;;;;;;5082776;28;10649;-78
2023/10/06 10:25:18;;;;;;;;;12.75;10.00;;;;;;;;5087915;28;10446;-79
2023/10/06 10:27:43;;;;;;;;;13.75;11.25;;;;;;;;5078490;28;10732;-78
2023/10/06 10:30:12;;;;;;;;;11.75;7.25;;;;;;;;5080961;28;10436;-78
2023/10/06 10:32:41;;;;;;;;;8.75;7.25;;;;;;;;5063638;28;8847;-77
2023/10/06 10:35:13;;;;;;;;;14.25;9.00;;;;;;;;5087466;28;10171;-74
2023/10/06 10:37:51;;;;;;;;;9.75;9.50;;;;;;;;5072829;28;10724;-79
2023/10/06 10:40:20;;;;;;;;;8.75;6.25;;;;;;;;5080949;28;11454;-80
2023/10/06 10:42:45;;;;;;;;;9.75;6.00;;;;;;;;5089264;28;10469;-78
2023/10/06 10:45:34;;;;;;;;;7.25;5.50;;;;;;;;5100872;28;10233;-78
2023/10/06 10:48:04;;;;;;;;;9.50;7.00;;;;;;;;5101368;28;8889;-79
2023/10/06 10:50:48;;;;;;;;;9.00;7.25;;;;;;;;5084699;28;10308;-73
2023/10/06 10:53:17;;;;;;;;;15.50;9.25;;;;;;;;5070711;28;10312;-74
2023/10/06 10:55:43;;;;;;;;;8.50;7.50;;;;;;;;5075423;28;10484;-74
2023/10/06 10:58:09;;;;;;;;;6.50;6.50;;;;;;;;5059120;28;10561;-75
2023/10/06 11:00:34;;;;;;;;;6.75;6.00;;;;;;;;5080989;28;8770;-75
2023/10/06 11:03:00;;;;;;;;;6.50;4.75;;;;;;;;5074289;28;8797;-75
2023/10/06 11:05:28;;;;;;;;;12.25;8.00;;;;;;;;5084242;28;8853;-75
2023/10/06 11:07:57;;;;;;;;;6.50;5.25;;;;;;;;5083837;28;10459;-76
2023/10/06 11:10:23;;;;;;;;;8.00;8.00;;;;;;;;5083899;28;10281;-76
2023/10/06 11:12:50;;;;;;;;;8.25;7.00;;;;;;;;5079009;28;10157;-75
2023/10/06 11:15:26;;;;;;;;;8.75;8.00;;;;;;;;5079769;28;11379;-73
2023/10/06 11:17:54;;;;;;;;;6.75;5.50;;;;;;;;5091938;28;10228;-74
2023/10/06 11:20:24;;;;;;;;;13.75;6.25;;;;;;;;5070735;28;10014;-74
2023/10/06 11:22:59;;;;;;;;;10.25;7.00;;;;;;;;5087462;28;10230;-75
2023/10/06 11:25:28;;;;;;;;;9.75;6.25;;;;;;;;5078406;28;10063;-76
2023/10/06 11:27:57;;;;;;;;;4.50;3.00;;;;;;;;5084235;28;10272;-76
2023/10/06 11:30:25;;;;;;;;;5.25;3.75;;;;;;;;5065441;28;9823;-76
2023/10/06 11:32:50;;;;;;;;;4.00;1.00;;;;;;;;5083950;28;10110;-75
2023/10/06 11:35:17;;;;;;;;;5.50;5.00;;;;;;;;5083719;28;9937;-76
2023/10/06 11:37:42;;;;;;;;;9.50;6.00;;;;;;;;5083980;28;8763;-75
2023/10/06 11:40:08;;;;;;;;;6.00;4.75;;;;;;;;5082577;28;10126;-76
2023/10/06 11:42:35;;;;;;;;;5.75;5.75;;;;;;;;5083587;28;8755;-75
2023/10/06 11:45:06;;;;;;;;;4.25;4.00;;;;;;;;5065612;28;8800;-75
2023/10/06 11:47:34;;;;;;;;;4.25;4.00;;;;;;;;5083859;28;9907;-75
2023/10/06 11:50:00;;;;;;;;;2.50;2.50;;;;;;;;5079216;28;9961;-76
2023/10/06 11:52:26;;;;;;;;;5.25;4.00;;;;;;;;5078819;28;9798;-76
2023/10/06 11:54:52;;;;;;;;;3.75;3.25;;;;;;;;5066715;28;8803;-75
2023/10/06 11:57:19;;;;;;;;;6.25;4.00;;;;;;;;5083249;28;10005;-75
2023/10/06 11:59:51;;;;;;;;;3.50;3.25;;;;;;;;5083016;28;8715;-76
2023/10/06 12:02:16;;;;;;;;;5.25;3.75;;;;;;;;5080589;28;9848;-76
2023/10/06 12:04:42;;;;;;;;;9.50;4.25;;;;;;;;5082190;28;9684;-77
2023/10/06 12:07:19;;;;;;;;;6.00;4.75;;;;;;;;5084932;28;8739;-76
2023/10/06 12:09:46;;;;;;;;;6.75;3.50;;;;;;;;5075413;28;11346;-76
2023/10/06 12:12:11;;;;;;;;;5.00;4.00;;;;;;;;5089400;28;9578;-75
2023/10/06 12:14:41;;;;;;;;;7.25;6.00;;;;;;;;5083068;28;9623;-75
2023/10/06 12:17:07;;;;;;;;;6.67;4.00;;;;;;;;5083173;28;8790;-78
2023/10/06 12:19:32;;;;;;;;;5.00;1.33;;;;;;;;5089206;28;9286;-77
2023/10/06 12:21:59;;;;;;;;;1.67;1.67;;;;;;;;5099146;28;8811;-79
2023/10/06 12:24:25;;;;;;;;;4.00;2.00;;;;;;;;5096529;28;8743;-81
2023/10/06 12:26:51;;;;;;;;;2.33;2.33;;;;;;;;5086380;28;9173;-76
2023/10/06 12:29:17;;;;;;;;;4.00;4.00;;;;;;;;5066607;28;9188;-75
2023/10/06 12:31:46;;;;;;;;;4.00;2.00;;;;;;;;5065213;28;9745;-76
2023/10/06 12:34:15;;;;;;;;;4.00;3.00;;;;;;;;5072433;28;9192;-79
2023/10/06 12:36:40;;;;;;;;;7.00;4.00;;;;;;;;5087167;28;10217;-75
2023/10/06 12:39:06;;;;;;;;;7.67;5.67;;;;;;;;5073998;28;9331;-77
2023/10/06 12:41:31;;;;;;;;;2.00;2.00;;;;;;;;5083540;28;8779;-76
2023/10/06 12:44:03;;;;;;;;;5.67;3.00;;;;;;;;5086956;28;8854;-76
2023/10/06 12:46:33;;;;;;;;;4.00;2.67;;;;;;;;5082103;28;8763;-77
2023/10/06 12:48:58;;;;;;;;;5.00;4.00;;;;;;;;5098205;28;9240;-77
2023/10/06 12:51:24;;;;;;;;;5.00;3.00;;;;;;;;5067686;28;9386;-77
2023/10/06 12:53:49;;;;;;;;;2.00;2.00;;;;;;;;5069141;28;8844;-77
2023/10/06 12:56:15;;;;;;;;;6.67;2.67;;;;;;;;5071782;28;10188;-77
2023/10/06 12:58:40;;;;;;;;;2.33;2.00;;;;;;;;5077564;28;8851;-77
2023/10/06 13:01:07;;;;;;;;;2.00;2.00;;;;;;;;5092917;28;8789;-77
2023/10/06 13:03:33;;;;;;;;;7.00;4.33;;;;;;;;5085264;28;8791;-78
2023/10/06 13:06:00;;;;;;;;;3.00;3.00;;;;;;;;5096512;28;9440;-76
2023/10/06 13:08:25;;;;;;;;;2.67;0.67;;;;;;;;5100030;28;8826;-76
2023/10/06 13:10:50;;;;;;;;;3.67;3.33;;;;;;;;5090060;28;9060;-76
2023/10/06 13:13:16;;;;;;;;;7.33;4.33;;;;;;;;5088937;28;8862;-77
2023/10/06 13:15:41;;;;;;;;;4.67;3.67;;;;;;;;5088108;28;8830;-77
2023/10/06 13:18:08;;;;;;;;;6.67;3.00;;;;;;;;5075958;28;8826;-76
2023/10/06 13:20:34;;;;;;;;;5.00;3.67;;;;;;;;5083029;28;8787;-76
2023/10/06 13:22:59;;;;;;;;;4.00;1.67;;;;;;;;5086105;28;9038;-76
2023/10/06 13:25:27;;;;;;;;;2.67;2.00;;;;;;;;5090042;28;8803;-76
2023/10/06 13:27:52;;;;;;;;;5.67;4.00;;;;;;;;5086701;28;8754;-76
2023/10/06 13:30:19;;;;;;;;;4.33;2.00;;;;;;;;5077467;28;9043;-77
2023/10/06 13:32:48;;;;;;;;;1.00;1.00;;;;;;;;5076765;28;8796;-76
2023/10/06 13:35:16;;;;;;;;;3.67;3.33;;;;;;;;5081480;28;9151;-76
2023/10/06 13:37:41;;;;;;;;;2.00;2.00;;;;;;;;5078833;28;8912;-77
2023/10/06 13:40:10;;;;;;;;;5.33;3.67;;;;;;;;5076689;28;8922;-77
2023/10/06 13:42:35;;;;;;;;;3.67;2.67;;;;;;;;5070008;28;8725;-76
2023/10/06 13:45:01;;;;;;;;;2.00;2.00;;;;;;;;5078051;28;9374;-77
2023/10/06 13:47:26;;;;;;;;;3.00;3.00;;;;;;;;5071870;28;8824;-77
2023/10/06 13:49:54;;;;;;;;;3.33;1.00;;;;;;;;5072645;28;8867;-77
2023/10/06 13:52:19;;;;;;;;;3.00;2.00;;;;;;;;5072462;28;8773;-77
2023/10/06 13:54:45;;;;;;;;;4.67;2.67;;;;;;;;5073505;28;9871;-77
2023/10/06 13:57:10;;;;;;;;;3.00;2.00;;;;;;;;5074619;28;8875;-76
2023/10/06 13:59:35;;;;;;;;;3.00;3.00;;;;;;;;5070357;28;9531;-77
2023/10/06 14:02:02;;;;;;;;;5.00;2.00;;;;;;;;5092956;28;8800;-76
2023/10/06 14:04:28;;;;;;;;;9.67;2.33;;;;;;;;5081095;28;8757;-76
2023/10/06 14:06:55;;;;;;;;;3.67;3.00;;;;;;;;5082057;28;9091;-76
2023/10/06 14:09:23;;;;;;;;;3.00;3.00;;;;;;;;5079659;28;11397;-76
2023/10/06 14:11:52;;;;;;;;;2.00;2.00;;;;;;;;5077276;28;8828;-76
2023/10/06 14:14:54;;;;;;;;;4.33;3.00;;;;;;;;5080464;28;8977;-76
2023/10/06 14:17:11;;;;;;;;;2.00;2.00;;;;;;;;5086745;28;8899;-76
2023/10/06 14:19:36;;;;;;;;;5.67;3.00;;;;;;;;5081667;28;8735;-76
2023/10/06 14:22:02;;;;;;;;;4.00;2.00;;;;;;;;5081338;28;8860;-76
2023/10/06 14:24:34;;;;;;;;;5.33;3.33;;;;;;;;5080811;28;8806;-77
2023/10/06 14:26:59;;;;;;;;;2.75;1.75;;;;;;;;5083212;28;8799;-77
2023/10/06 14:29:26;;;;;;;;;8.00;5.33;;;;;;;;5084633;28;8783;-76
2023/10/06 14:32:09;;;;;;;;;2.00;2.00;;;;;;;;5085514;28;8774;-76
2023/10/06 14:34:56;;;;;;;;;4.00;2.75;;;;;;;;5105457;28;8716;-77
2023/10/06 14:37:38;;;;;;;;;4.50;1.75;;;;;;;;5086410;28;8892;-77
2023/10/06 14:48:33;;;;;;;;;0.25;0.25;;;;;;;;4997131;28;8865;-77
2023/10/06 14:51:01;;;;;;;;;1.33;0.00;;;;;;;;4992530;28;9092;-77
2023/10/06 14:53:28;;;;;;;;;1.00;1.00;;;;;;;;4999633;28;8818;-77
2023/10/06 14:55:53;;;;;;;;;2.75;1.75;;;;;;;;4994403;28;8774;-77
2023/10/06 14:58:19;;;;;;;;;2.00;1.67;;;;;;;;4999498;28;8850;-77